sensor_id;sensor_type;location;lat;lon;timestamp;P1;durP1;ratioP1;P2;durP2;ratioP2
78197;SDS011;67472;51.554;7.812;2023-05-16T00:02:29;16.70;;;11.13;;
78197;SDS011;67472;51.554;7.812;2023-05-16T00:05:17;14.55;;;10.15;;
78197;SDS011;67472;51.554;7.812;2023-05-16T00:08:03;15.93;;;10.77;;
78197;SDS011;67472;51.554;7.812;2023-05-16T00:10:50;16.80;;;11.52;;
78197;SDS011;67472;51.554;7.812;2023-05-16T00:13:36;14.75;;;10.50;;
78197;SDS011;67472;51.554;7.812;2023-05-16T00:16:26;15.98;;;11.55;;
78197;SDS011;67472;51.554;7.812;2023-05-16T00:19:13;19.50;;;11.50;;
78197;SDS011;67472;51.554;7.812;2023-05-16T00:22:01;20.67;;;12.80;;
78197;SDS011;67472;51.554;7.812;2023-05-16T00:24:48;19.80;;;11.93;;
78197;SDS011;67472;51.554;7.812;2023-05-16T00:27:34;16.90;;;11.98;;
78197;SDS011;67472;51.554;7.812;2023-05-16T00:30:21;17.70;;;12.07;;
78197;SDS011;67472;51.554;7.812;2023-05-16T00:33:10;22.02;;;14.20;;
78197;SDS011;67472;51.554;7.812;2023-05-16T00:35:56;20.33;;;13.63;;
78197;SDS011;67472;51.554;7.812;2023-05-16T00:38:43;22.50;;;14.65;;
78197;SDS011;67472;51.554;7.812;2023-05-16T00:41:29;20.83;;;14.00;;
78197;SDS011;67472;51.554;7.812;2023-05-16T00:44:16;22.83;;;14.73;;
78197;SDS011;67472;51.554;7.812;2023-05-16T00:47:02;24.08;;;15.40;;
78197;SDS011;67472;51.554;7.812;2023-05-16T00:49:48;24.83;;;16.52;;
78197;SDS011;67472;51.554;7.812;2023-05-16T00:52:34;22.08;;;14.48;;
78197;SDS011;67472;51.554;7.812;2023-05-16T00:55:22;23.88;;;14.40;;
78197;SDS011;67472;51.554;7.812;2023-05-16T00:58:09;20.92;;;14.43;;
78197;SDS011;67472;51.554;7.812;2023-05-16T01:00:56;18.05;;;13.27;;
78197;SDS011;67472;51.554;7.812;2023-05-16T01:03:43;19.75;;;12.60;;
78197;SDS011;67472;51.554;7.812;2023-05-16T01:06:30;17.58;;;12.95;;
78197;SDS011;67472;51.554;7.812;2023-05-16T01:09:17;17.08;;;12.05;;
78197;SDS011;67472;51.554;7.812;2023-05-16T01:12:08;16.08;;;11.63;;
78197;SDS011;67472;51.554;7.812;2023-05-16T01:15:01;17.90;;;12.15;;
78197;SDS011;67472;51.554;7.812;2023-05-16T01:17:54;17.27;;;12.98;;
78197;SDS011;67472;51.554;7.812;2023-05-16T01:20:48;17.20;;;12.52;;
78197;SDS011;67472;51.554;7.812;2023-05-16T01:23:45;18.90;;;13.23;;
78197;SDS011;67472;51.554;7.812;2023-05-16T01:26:38;21.70;;;12.65;;
78197;SDS011;67472;51.554;7.812;2023-05-16T01:29:25;16.38;;;12.13;;
78197;SDS011;67472;51.554;7.812;2023-05-16T01:32:12;18.45;;;12.35;;
78197;SDS011;67472;51.554;7.812;2023-05-16T01:35:00;19.48;;;12.98;;
78197;SDS011;67472;51.554;7.812;2023-05-16T01:37:47;22.35;;;13.85;;
78197;SDS011;67472;51.554;7.812;2023-05-16T01:40:39;17.63;;;11.98;;
78197;SDS011;67472;51.554;7.812;2023-05-16T01:43:34;15.23;;;10.85;;
78197;SDS011;67472;51.554;7.812;2023-05-16T01:46:27;11.55;;;8.95;;
78197;SDS011;67472;51.554;7.812;2023-05-16T01:49:19;10.57;;;7.65;;
78197;SDS011;67472;51.554;7.812;2023-05-16T01:52:10;10.43;;;8.00;;
78197;SDS011;67472;51.554;7.812;2023-05-16T01:55:00;6.07;;;5.03;;
78197;SDS011;67472;51.554;7.812;2023-05-16T01:57:48;5.53;;;4.28;;
78197;SDS011;67472;51.554;7.812;2023-05-16T02:00:36;8.32;;;4.10;;
78197;SDS011;67472;51.554;7.812;2023-05-16T02:03:22;4.88;;;4.13;;
78197;SDS011;67472;51.554;7.812;2023-05-16T02:06:09;5.65;;;4.32;;
78197;SDS011;67472;51.554;7.812;2023-05-16T02:08:55;5.35;;;4.32;;
78197;SDS011;67472;51.554;7.812;2023-05-16T02:11:41;4.57;;;3.45;;
78197;SDS011;67472;51.554;7.812;2023-05-16T02:14:28;5.07;;;2.85;;
78197;SDS011;67472;51.554;7.812;2023-05-16T02:17:16;2.33;;;2.13;;
78197;SDS011;67472;51.554;7.812;2023-05-16T02:20:02;3.00;;;2.58;;
78197;SDS011;67472;51.554;7.812;2023-05-16T02:22:51;2.67;;;2.17;;
78197;SDS011;67472;51.554;7.812;2023-05-16T02:25:37;2.22;;;1.85;;
78197;SDS011;67472;51.554;7.812;2023-05-16T02:28:26;2.40;;;1.88;;
78197;SDS011;67472;51.554;7.812;2023-05-16T02:31:13;5.55;;;2.20;;
78197;SDS011;67472;51.554;7.812;2023-05-16T02:34:11;4.00;;;2.85;;
78197;SDS011;67472;51.554;7.812;2023-05-16T02:36:57;5.40;;;2.65;;
78197;SDS011;67472;51.554;7.812;2023-05-16T02:39:43;4.82;;;4.15;;
78197;SDS011;67472;51.554;7.812;2023-05-16T02:42:29;8.80;;;4.63;;
78197;SDS011;67472;51.554;7.812;2023-05-16T02:45:16;13.38;;;4.72;;
78197;SDS011;67472;51.554;7.812;2023-05-16T02:48:02;13.52;;;5.38;;
78197;SDS011;67472;51.554;7.812;2023-05-16T02:50:50;9.40;;;5.03;;
78197;SDS011;67472;51.554;7.812;2023-05-16T02:53:36;8.27;;;5.05;;
78197;SDS011;67472;51.554;7.812;2023-05-16T02:56:23;14.32;;;5.50;;
78197;SDS011;67472;51.554;7.812;2023-05-16T02:59:10;8.85;;;5.78;;
78197;SDS011;67472;51.554;7.812;2023-05-16T03:01:56;9.90;;;6.15;;
78197;SDS011;67472;51.554;7.812;2023-05-16T03:04:44;14.68;;;6.65;;
78197;SDS011;67472;51.554;7.812;2023-05-16T03:07:32;17.63;;;7.65;;
78197;SDS011;67472;51.554;7.812;2023-05-16T03:10:18;15.48;;;7.60;;
78197;SDS011;67472;51.554;7.812;2023-05-16T03:13:04;15.95;;;7.13;;
78197;SDS011;67472;51.554;7.812;2023-05-16T03:15:50;12.52;;;7.25;;
78197;SDS011;67472;51.554;7.812;2023-05-16T03:18:36;17.02;;;7.45;;
78197;SDS011;67472;51.554;7.812;2023-05-16T03:21:22;15.52;;;7.68;;
78197;SDS011;67472;51.554;7.812;2023-05-16T03:24:11;17.60;;;8.27;;
78197;SDS011;67472;51.554;7.812;2023-05-16T03:26:57;19.92;;;7.63;;
78197;SDS011;67472;51.554;7.812;2023-05-16T03:29:44;14.88;;;7.35;;
78197;SDS011;67472;51.554;7.812;2023-05-16T03:32:30;17.67;;;7.30;;
78197;SDS011;67472;51.554;7.812;2023-05-16T03:35:16;26.10;;;7.18;;
78197;SDS011;67472;51.554;7.812;2023-05-16T03:38:03;30.58;;;7.25;;
78197;SDS011;67472;51.554;7.812;2023-05-16T03:40:51;17.85;;;6.55;;
78197;SDS011;67472;51.554;7.812;2023-05-16T03:43:37;17.63;;;7.20;;
78197;SDS011;67472;51.554;7.812;2023-05-16T03:46:23;17.00;;;6.90;;
78197;SDS011;67472;51.554;7.812;2023-05-16T03:49:10;16.50;;;6.10;;
78197;SDS011;67472;51.554;7.812;2023-05-16T03:51:56;18.55;;;7.40;;
78197;SDS011;67472;51.554;7.812;2023-05-16T03:54:43;18.80;;;6.57;;
78197;SDS011;67472;51.554;7.812;2023-05-16T03:57:32;16.50;;;6.00;;
78197;SDS011;67472;51.554;7.812;2023-05-16T04:00:18;19.05;;;5.35;;
78197;SDS011;67472;51.554;7.812;2023-05-16T04:03:04;18.52;;;5.32;;
78197;SDS011;67472;51.554;7.812;2023-05-16T04:05:51;12.80;;;5.28;;
78197;SDS011;67472;51.554;7.812;2023-05-16T04:08:37;12.18;;;5.00;;
78197;SDS011;67472;51.554;7.812;2023-05-16T04:11:24;21.50;;;5.90;;
78197;SDS011;67472;51.554;7.812;2023-05-16T04:14:13;13.85;;;5.80;;
78197;SDS011;67472;51.554;7.812;2023-05-16T04:17:00;20.73;;;5.13;;
78197;SDS011;67472;51.554;7.812;2023-05-16T04:19:46;15.38;;;5.13;;
78197;SDS011;67472;51.554;7.812;2023-05-16T04:22:33;19.73;;;5.93;;
78197;SDS011;67472;51.554;7.812;2023-05-16T04:25:19;14.35;;;4.72;;
78197;SDS011;67472;51.554;7.812;2023-05-16T04:28:05;18.15;;;5.47;;
78197;SDS011;67472;51.554;7.812;2023-05-16T04:30:53;21.13;;;5.65;;
78197;SDS011;67472;51.554;7.812;2023-05-16T04:33:39;19.95;;;5.28;;
78197;SDS011;67472;51.554;7.812;2023-05-16T04:36:26;13.57;;;5.15;;
78197;SDS011;67472;51.554;7.812;2023-05-16T04:39:13;21.35;;;5.10;;
78197;SDS011;67472;51.554;7.812;2023-05-16T04:41:59;17.60;;;5.22;;
78197;SDS011;67472;51.554;7.812;2023-05-16T04:44:46;28.77;;;4.07;;
78197;SDS011;67472;51.554;7.812;2023-05-16T04:47:34;15.73;;;4.55;;
78197;SDS011;67472;51.554;7.812;2023-05-16T04:50:21;14.35;;;4.57;;
78197;SDS011;67472;51.554;7.812;2023-05-16T04:53:07;11.88;;;4.20;;
78197;SDS011;67472;51.554;7.812;2023-05-16T04:55:53;17.98;;;4.22;;
78197;SDS011;67472;51.554;7.812;2023-05-16T04:58:40;18.30;;;3.65;;
78197;SDS011;67472;51.554;7.812;2023-05-16T05:01:26;16.67;;;4.28;;
78197;SDS011;67472;51.554;7.812;2023-05-16T05:04:13;23.00;;;4.40;;
78197;SDS011;67472;51.554;7.812;2023-05-16T05:07:01;20.08;;;3.58;;
78197;SDS011;67472;51.554;7.812;2023-05-16T05:09:47;21.05;;;4.65;;
78197;SDS011;67472;51.554;7.812;2023-05-16T05:12:33;13.38;;;3.97;;
78197;SDS011;67472;51.554;7.812;2023-05-16T05:15:20;14.93;;;3.55;;
78197;SDS011;67472;51.554;7.812;2023-05-16T05:18:06;18.02;;;4.20;;
78197;SDS011;67472;51.554;7.812;2023-05-16T05:20:54;16.20;;;4.05;;
78197;SDS011;67472;51.554;7.812;2023-05-16T05:23:41;20.77;;;4.07;;
78197;SDS011;67472;51.554;7.812;2023-05-16T05:26:27;26.38;;;4.63;;
78197;SDS011;67472;51.554;7.812;2023-05-16T05:29:14;16.70;;;3.53;;
78197;SDS011;67472;51.554;7.812;2023-05-16T05:32:00;14.88;;;2.97;;
78197;SDS011;67472;51.554;7.812;2023-05-16T05:34:46;12.23;;;3.53;;
78197;SDS011;67472;51.554;7.812;2023-05-16T05:37:34;14.60;;;3.08;;
78197;SDS011;67472;51.554;7.812;2023-05-16T05:40:20;13.18;;;3.60;;
78197;SDS011;67472;51.554;7.812;2023-05-16T05:43:07;18.25;;;3.28;;
78197;SDS011;67472;51.554;7.812;2023-05-16T05:45:53;15.93;;;3.75;;
78197;SDS011;67472;51.554;7.812;2023-05-16T05:48:39;14.70;;;3.03;;
78197;SDS011;67472;51.554;7.812;2023-05-16T05:51:26;11.85;;;3.03;;
78197;SDS011;67472;51.554;7.812;2023-05-16T05:54:14;11.48;;;3.00;;
78197;SDS011;67472;51.554;7.812;2023-05-16T05:57:00;20.63;;;3.45;;
78197;SDS011;67472;51.554;7.812;2023-05-16T05:59:46;18.50;;;3.90;;
78197;SDS011;67472;51.554;7.812;2023-05-16T06:02:32;12.32;;;2.85;;
78197;SDS011;67472;51.554;7.812;2023-05-16T06:05:19;10.50;;;3.00;;
78197;SDS011;67472;51.554;7.812;2023-05-16T06:08:05;16.05;;;3.25;;
78197;SDS011;67472;51.554;7.812;2023-05-16T06:10:52;16.50;;;2.45;;
78197;SDS011;67472;51.554;7.812;2023-05-16T06:13:38;12.65;;;2.60;;
78197;SDS011;67472;51.554;7.812;2023-05-16T06:16:25;13.77;;;2.63;;
78197;SDS011;67472;51.554;7.812;2023-05-16T06:19:11;13.48;;;3.00;;
78197;SDS011;67472;51.554;7.812;2023-05-16T06:21:59;16.33;;;2.72;;
78197;SDS011;67472;51.554;7.812;2023-05-16T06:24:46;11.48;;;2.67;;
78197;SDS011;67472;51.554;7.812;2023-05-16T06:27:34;10.98;;;2.53;;
78197;SDS011;67472;51.554;7.812;2023-05-16T06:30:20;12.48;;;3.20;;
78197;SDS011;67472;51.554;7.812;2023-05-16T06:33:06;11.48;;;2.67;;
78197;SDS011;67472;51.554;7.812;2023-05-16T06:35:52;14.77;;;2.83;;
78197;SDS011;67472;51.554;7.812;2023-05-16T06:38:39;8.50;;;2.58;;
78197;SDS011;67472;51.554;7.812;2023-05-16T06:41:25;15.48;;;2.70;;
78197;SDS011;67472;51.554;7.812;2023-05-16T06:44:12;10.45;;;2.55;;
78197;SDS011;67472;51.554;7.812;2023-05-16T06:46:59;11.30;;;2.90;;
78197;SDS011;67472;51.554;7.812;2023-05-16T06:49:45;13.23;;;2.95;;
78197;SDS011;67472;51.554;7.812;2023-05-16T06:52:32;11.35;;;2.60;;
78197;SDS011;67472;51.554;7.812;2023-05-16T06:55:18;18.25;;;4.03;;
78197;SDS011;67472;51.554;7.812;2023-05-16T06:58:04;22.00;;;3.35;;
78197;SDS011;67472;51.554;7.812;2023-05-16T07:00:52;11.23;;;1.95;;
78197;SDS011;67472;51.554;7.812;2023-05-16T07:03:39;12.05;;;2.60;;
78197;SDS011;67472;51.554;7.812;2023-05-16T07:06:25;12.45;;;2.58;;
78197;SDS011;67472;51.554;7.812;2023-05-16T07:09:11;18.63;;;4.63;;
78197;SDS011;67472;51.554;7.812;2023-05-16T07:11:58;13.90;;;2.42;;
78197;SDS011;67472;51.554;7.812;2023-05-16T07:14:44;11.45;;;2.20;;
78197;SDS011;67472;51.554;7.812;2023-05-16T07:17:32;10.00;;;2.92;;
78197;SDS011;67472;51.554;7.812;2023-05-16T07:20:18;15.52;;;2.70;;
78197;SDS011;67472;51.554;7.812;2023-05-16T07:23:05;10.73;;;2.17;;
78197;SDS011;67472;51.554;7.812;2023-05-16T07:25:51;12.90;;;2.85;;
78197;SDS011;67472;51.554;7.812;2023-05-16T07:28:38;11.88;;;2.35;;
78197;SDS011;67472;51.554;7.812;2023-05-16T07:31:24;10.75;;;2.35;;
78197;SDS011;67472;51.554;7.812;2023-05-16T07:34:12;13.40;;;2.38;;
78197;SDS011;67472;51.554;7.812;2023-05-16T07:36:58;8.88;;;2.20;;
78197;SDS011;67472;51.554;7.812;2023-05-16T07:39:44;9.82;;;1.90;;
78197;SDS011;67472;51.554;7.812;2023-05-16T07:42:30;9.93;;;2.22;;
78197;SDS011;67472;51.554;7.812;2023-05-16T07:45:17;5.55;;;1.60;;
78197;SDS011;67472;51.554;7.812;2023-05-16T07:48:03;6.13;;;1.65;;
78197;SDS011;67472;51.554;7.812;2023-05-16T07:50:51;9.38;;;2.47;;
78197;SDS011;67472;51.554;7.812;2023-05-16T07:53:38;9.30;;;2.10;;
78197;SDS011;67472;51.554;7.812;2023-05-16T07:56:24;7.82;;;1.98;;
78197;SDS011;67472;51.554;7.812;2023-05-16T07:59:11;15.52;;;3.20;;
78197;SDS011;67472;51.554;7.812;2023-05-16T08:01:57;12.88;;;2.15;;
78197;SDS011;67472;51.554;7.812;2023-05-16T08:04:43;10.10;;;2.00;;
78197;SDS011;67472;51.554;7.812;2023-05-16T08:07:32;18.02;;;3.83;;
78197;SDS011;67472;51.554;7.812;2023-05-16T08:10:18;11.45;;;1.92;;
78197;SDS011;67472;51.554;7.812;2023-05-16T08:13:04;8.32;;;1.70;;
78197;SDS011;67472;51.554;7.812;2023-05-16T08:15:51;10.82;;;2.47;;
78197;SDS011;67472;51.554;7.812;2023-05-16T08:18:37;12.70;;;2.33;;
78197;SDS011;67472;51.554;7.812;2023-05-16T08:21:23;6.97;;;1.70;;
78197;SDS011;67472;51.554;7.812;2023-05-16T08:24:11;7.13;;;1.67;;
78197;SDS011;67472;51.554;7.812;2023-05-16T08:26:58;5.15;;;1.42;;
78197;SDS011;67472;51.554;7.812;2023-05-16T08:29:44;5.13;;;1.77;;
78197;SDS011;67472;51.554;7.812;2023-05-16T08:32:30;6.32;;;1.63;;
78197;SDS011;67472;51.554;7.812;2023-05-16T08:35:17;12.25;;;2.45;;
78197;SDS011;67472;51.554;7.812;2023-05-16T08:38:03;7.53;;;1.60;;
78197;SDS011;67472;51.554;7.812;2023-05-16T08:40:51;10.65;;;2.03;;
78197;SDS011;67472;51.554;7.812;2023-05-16T08:43:37;10.50;;;1.73;;
78197;SDS011;67472;51.554;7.812;2023-05-16T08:46:24;7.43;;;1.48;;
78197;SDS011;67472;51.554;7.812;2023-05-16T08:49:13;9.32;;;1.58;;
78197;SDS011;67472;51.554;7.812;2023-05-16T08:52:00;9.13;;;1.85;;
78197;SDS011;67472;51.554;7.812;2023-05-16T08:54:50;7.60;;;2.15;;
78197;SDS011;67472;51.554;7.812;2023-05-16T08:57:40;7.60;;;1.60;;
78197;SDS011;67472;51.554;7.812;2023-05-16T09:00:26;11.68;;;1.65;;
78197;SDS011;67472;51.554;7.812;2023-05-16T09:03:13;4.35;;;1.30;;
78197;SDS011;67472;51.554;7.812;2023-05-16T09:05:59;8.13;;;1.92;;
78197;SDS011;67472;51.554;7.812;2023-05-16T09:08:45;4.63;;;1.70;;
78197;SDS011;67472;51.554;7.812;2023-05-16T09:11:31;5.38;;;1.30;;
78197;SDS011;67472;51.554;7.812;2023-05-16T09:14:19;3.78;;;1.08;;
78197;SDS011;67472;51.554;7.812;2023-05-16T09:17:06;4.55;;;1.20;;
78197;SDS011;67472;51.554;7.812;2023-05-16T09:19:54;6.65;;;1.90;;
78197;SDS011;67472;51.554;7.812;2023-05-16T09:22:48;4.50;;;1.65;;
78197;SDS011;67472;51.554;7.812;2023-05-16T09:25:36;5.25;;;1.02;;
78197;SDS011;67472;51.554;7.812;2023-05-16T09:28:25;6.07;;;1.10;;
78197;SDS011;67472;51.554;7.812;2023-05-16T09:31:22;5.15;;;1.08;;
78197;SDS011;67472;51.554;7.812;2023-05-16T09:34:10;7.63;;;1.45;;
78197;SDS011;67472;51.554;7.812;2023-05-16T09:36:56;5.32;;;1.33;;
78197;SDS011;67472;51.554;7.812;2023-05-16T09:39:44;6.20;;;1.52;;
78197;SDS011;67472;51.554;7.812;2023-05-16T09:42:31;7.38;;;1.60;;
78197;SDS011;67472;51.554;7.812;2023-05-16T09:45:17;4.53;;;1.02;;
78197;SDS011;67472;51.554;7.812;2023-05-16T09:48:07;6.80;;;1.80;;
78197;SDS011;67472;51.554;7.812;2023-05-16T09:50:56;5.30;;;1.13;;
78197;SDS011;67472;51.554;7.812;2023-05-16T09:53:47;7.38;;;1.33;;
78197;SDS011;67472;51.554;7.812;2023-05-16T09:56:33;7.20;;;1.83;;
78197;SDS011;67472;51.554;7.812;2023-05-16T09:59:37;5.45;;;1.10;;
78197;SDS011;67472;51.554;7.812;2023-05-16T10:02:24;5.90;;;1.30;;
78197;SDS011;67472;51.554;7.812;2023-05-16T10:05:12;5.05;;;1.48;;
78197;SDS011;67472;51.554;7.812;2023-05-16T10:08:00;6.40;;;1.45;;
78197;SDS011;67472;51.554;7.812;2023-05-16T10:10:49;7.60;;;1.10;;
78197;SDS011;67472;51.554;7.812;2023-05-16T10:13:36;3.25;;;1.27;;
78197;SDS011;67472;51.554;7.812;2023-05-16T10:16:24;2.80;;;1.23;;
78197;SDS011;67472;51.554;7.812;2023-05-16T10:19:11;3.42;;;1.08;;
78197;SDS011;67472;51.554;7.812;2023-05-16T10:21:59;1.85;;;1.27;;
78197;SDS011;67472;51.554;7.812;2023-05-16T10:24:51;5.13;;;1.42;;
78197;SDS011;67472;51.554;7.812;2023-05-16T10:27:41;4.80;;;1.10;;
78197;SDS011;67472;51.554;7.812;2023-05-16T10:30:29;7.00;;;1.13;;
78197;SDS011;67472;51.554;7.812;2023-05-16T10:33:17;1.90;;;0.90;;
78197;SDS011;67472;51.554;7.812;2023-05-16T10:36:03;4.35;;;1.38;;
78197;SDS011;67472;51.554;7.812;2023-05-16T10:38:52;3.97;;;1.08;;
78197;SDS011;67472;51.554;7.812;2023-05-16T10:41:40;3.10;;;0.73;;
78197;SDS011;67472;51.554;7.812;2023-05-16T10:44:27;4.20;;;0.90;;
78197;SDS011;67472;51.554;7.812;2023-05-16T10:47:17;4.35;;;0.90;;
78197;SDS011;67472;51.554;7.812;2023-05-16T10:50:04;4.22;;;0.93;;
78197;SDS011;67472;51.554;7.812;2023-05-16T10:52:52;7.95;;;1.30;;
78197;SDS011;67472;51.554;7.812;2023-05-16T10:55:39;7.35;;;1.30;;
78197;SDS011;67472;51.554;7.812;2023-05-16T10:58:38;5.72;;;1.52;;
78197;SDS011;67472;51.554;7.812;2023-05-16T11:01:26;5.65;;;1.10;;
78197;SDS011;67472;51.554;7.812;2023-05-16T11:04:16;113.15;;;21.48;;
78197;SDS011;67472;51.554;7.812;2023-05-16T11:07:02;5.60;;;1.30;;
78197;SDS011;67472;51.554;7.812;2023-05-16T11:10:01;4.10;;;1.20;;
78197;SDS011;67472;51.554;7.812;2023-05-16T11:12:50;4.47;;;1.10;;
78197;SDS011;67472;51.554;7.812;2023-05-16T11:15:41;5.50;;;0.90;;
78197;SDS011;67472;51.554;7.812;2023-05-16T11:18:30;3.70;;;1.40;;
78197;SDS011;67472;51.554;7.812;2023-05-16T11:21:17;5.07;;;1.42;;
78197;SDS011;67472;51.554;7.812;2023-05-16T11:27:13;9.82;;;1.35;;
78197;SDS011;67472;51.554;7.812;2023-05-16T11:30:11;2.55;;;1.10;;
78197;SDS011;67472;51.554;7.812;2023-05-16T11:32:59;2.17;;;0.85;;
78197;SDS011;67472;51.554;7.812;2023-05-16T11:35:58;3.28;;;0.88;;
78197;SDS011;67472;51.554;7.812;2023-05-16T11:38:49;3.42;;;1.40;;
78197;SDS011;67472;51.554;7.812;2023-05-16T11:41:36;4.13;;;1.20;;
78197;SDS011;67472;51.554;7.812;2023-05-16T11:44:23;4.57;;;1.02;;
78197;SDS011;67472;51.554;7.812;2023-05-16T11:47:11;5.57;;;1.20;;
78197;SDS011;67472;51.554;7.812;2023-05-16T11:49:57;4.25;;;0.88;;
78197;SDS011;67472;51.554;7.812;2023-05-16T11:52:44;3.00;;;0.82;;
78197;SDS011;67472;51.554;7.812;2023-05-16T11:55:31;5.15;;;1.13;;
78197;SDS011;67472;51.554;7.812;2023-05-16T11:58:18;4.07;;;1.38;;
78197;SDS011;67472;51.554;7.812;2023-05-16T12:01:05;5.90;;;1.40;;
78197;SDS011;67472;51.554;7.812;2023-05-16T12:03:56;4.15;;;1.10;;
78197;SDS011;67472;51.554;7.812;2023-05-16T12:06:42;4.45;;;1.02;;
78197;SDS011;67472;51.554;7.812;2023-05-16T12:09:29;3.75;;;1.40;;
78197;SDS011;67472;51.554;7.812;2023-05-16T12:12:15;1.75;;;0.68;;
78197;SDS011;67472;51.554;7.812;2023-05-16T12:15:06;5.03;;;1.38;;
78197;SDS011;67472;51.554;7.812;2023-05-16T12:17:53;3.22;;;0.80;;
78197;SDS011;67472;51.554;7.812;2023-05-16T12:20:41;4.63;;;1.20;;
78197;SDS011;67472;51.554;7.812;2023-05-16T12:23:28;5.63;;;2.35;;
78197;SDS011;67472;51.554;7.812;2023-05-16T12:26:14;6.75;;;1.15;;
78197;SDS011;67472;51.554;7.812;2023-05-16T12:29:10;3.10;;;1.00;;
78197;SDS011;67472;51.554;7.812;2023-05-16T12:31:56;3.83;;;0.93;;
78197;SDS011;67472;51.554;7.812;2023-05-16T12:34:48;5.00;;;1.00;;
78197;SDS011;67472;51.554;7.812;2023-05-16T12:37:36;4.57;;;1.40;;
78197;SDS011;67472;51.554;7.812;2023-05-16T12:40:22;5.10;;;1.20;;
78197;SDS011;67472;51.554;7.812;2023-05-16T12:43:13;4.05;;;1.00;;
78197;SDS011;67472;51.554;7.812;2023-05-16T12:45:59;2.40;;;0.85;;
78197;SDS011;67472;51.554;7.812;2023-05-16T12:48:46;3.47;;;0.85;;
78197;SDS011;67472;51.554;7.812;2023-05-16T12:51:32;3.47;;;0.90;;
78197;SDS011;67472;51.554;7.812;2023-05-16T12:54:20;2.67;;;0.93;;
78197;SDS011;67472;51.554;7.812;2023-05-16T12:57:07;2.15;;;1.00;;
78197;SDS011;67472;51.554;7.812;2023-05-16T12:59:54;5.22;;;1.13;;
78197;SDS011;67472;51.554;7.812;2023-05-16T13:02:40;4.70;;;0.98;;
78197;SDS011;67472;51.554;7.812;2023-05-16T13:05:27;5.82;;;1.20;;
78197;SDS011;67472;51.554;7.812;2023-05-16T13:08:13;7.10;;;1.45;;
78197;SDS011;67472;51.554;7.812;2023-05-16T13:11:01;4.22;;;1.35;;
78197;SDS011;67472;51.554;7.812;2023-05-16T13:13:47;3.20;;;0.88;;
78197;SDS011;67472;51.554;7.812;2023-05-16T13:16:33;6.20;;;0.98;;
78197;SDS011;67472;51.554;7.812;2023-05-16T13:19:19;2.53;;;1.42;;
78197;SDS011;67472;51.554;7.812;2023-05-16T13:22:06;5.40;;;1.65;;
78197;SDS011;67472;51.554;7.812;2023-05-16T13:24:53;3.95;;;1.42;;
78197;SDS011;67472;51.554;7.812;2023-05-16T13:27:41;1.77;;;1.00;;
78197;SDS011;67472;51.554;7.812;2023-05-16T13:30:27;6.18;;;1.10;;
78197;SDS011;67472;51.554;7.812;2023-05-16T13:33:14;3.17;;;1.05;;
78197;SDS011;67472;51.554;7.812;2023-05-16T13:36:00;2.65;;;1.05;;
78197;SDS011;67472;51.554;7.812;2023-05-16T13:38:47;4.25;;;1.10;;
78197;SDS011;67472;51.554;7.812;2023-05-16T13:41:33;4.90;;;1.25;;
78197;SDS011;67472;51.554;7.812;2023-05-16T13:44:23;3.35;;;0.98;;
78197;SDS011;67472;51.554;7.812;2023-05-16T13:47:10;11.90;;;1.30;;
78197;SDS011;67472;51.554;7.812;2023-05-16T13:49:57;2.65;;;1.02;;
78197;SDS011;67472;51.554;7.812;2023-05-16T13:52:43;6.40;;;1.55;;
78197;SDS011;67472;51.554;7.812;2023-05-16T13:55:30;3.88;;;1.02;;
78197;SDS011;67472;51.554;7.812;2023-05-16T13:58:17;2.35;;;1.10;;
78197;SDS011;67472;51.554;7.812;2023-05-16T14:01:04;7.05;;;1.17;;
78197;SDS011;67472;51.554;7.812;2023-05-16T14:03:51;3.90;;;1.73;;
78197;SDS011;67472;51.554;7.812;2023-05-16T14:06:37;4.50;;;1.13;;
78197;SDS011;67472;51.554;7.812;2023-05-16T14:09:23;2.20;;;0.75;;
78197;SDS011;67472;51.554;7.812;2023-05-16T14:12:09;1.90;;;0.80;;
78197;SDS011;67472;51.554;7.812;2023-05-16T14:14:56;2.70;;;1.05;;
78197;SDS011;67472;51.554;7.812;2023-05-16T14:17:44;2.92;;;0.80;;
78197;SDS011;67472;51.554;7.812;2023-05-16T14:20:30;3.05;;;0.77;;
78197;SDS011;67472;51.554;7.812;2023-05-16T14:23:16;2.75;;;0.90;;
78197;SDS011;67472;51.554;7.812;2023-05-16T14:26:03;3.60;;;1.10;;
78197;SDS011;67472;51.554;7.812;2023-05-16T14:28:49;4.78;;;1.40;;
78197;SDS011;67472;51.554;7.812;2023-05-16T14:31:36;5.63;;;1.55;;
78197;SDS011;67472;51.554;7.812;2023-05-16T14:34:23;4.10;;;1.27;;
78197;SDS011;67472;51.554;7.812;2023-05-16T14:37:09;7.03;;;1.35;;
78197;SDS011;67472;51.554;7.812;2023-05-16T14:39:56;3.03;;;1.05;;
78197;SDS011;67472;51.554;7.812;2023-05-16T14:42:44;3.63;;;1.02;;
78197;SDS011;67472;51.554;7.812;2023-05-16T14:45:30;4.60;;;0.90;;
78197;SDS011;67472;51.554;7.812;2023-05-16T14:48:17;4.50;;;0.80;;
78197;SDS011;67472;51.554;7.812;2023-05-16T14:51:05;2.92;;;1.38;;
78197;SDS011;67472;51.554;7.812;2023-05-16T14:53:51;3.35;;;1.20;;
78197;SDS011;67472;51.554;7.812;2023-05-16T14:56:38;5.05;;;1.10;;
78197;SDS011;67472;51.554;7.812;2023-05-16T14:59:24;6.25;;;1.50;;
78197;SDS011;67472;51.554;7.812;2023-05-16T15:02:11;4.78;;;1.55;;
78197;SDS011;67472;51.554;7.812;2023-05-16T15:04:57;6.15;;;1.10;;
78197;SDS011;67472;51.554;7.812;2023-05-16T15:07:45;5.95;;;0.90;;
78197;SDS011;67472;51.554;7.812;2023-05-16T15:10:32;2.90;;;1.40;;
78197;SDS011;67472;51.554;7.812;2023-05-16T15:13:18;4.55;;;1.15;;
78197;SDS011;67472;51.554;7.812;2023-05-16T15:16:05;3.22;;;1.20;;
78197;SDS011;67472;51.554;7.812;2023-05-16T15:18:51;4.60;;;1.05;;
78197;SDS011;67472;51.554;7.812;2023-05-16T15:21:38;5.10;;;1.00;;
78197;SDS011;67472;51.554;7.812;2023-05-16T15:24:26;3.35;;;1.20;;
78197;SDS011;67472;51.554;7.812;2023-05-16T15:27:12;6.00;;;0.98;;
78197;SDS011;67472;51.554;7.812;2023-05-16T15:29:59;5.35;;;1.05;;
78197;SDS011;67472;51.554;7.812;2023-05-16T15:32:45;4.38;;;0.98;;
78197;SDS011;67472;51.554;7.812;2023-05-16T15:35:31;7.63;;;1.67;;
78197;SDS011;67472;51.554;7.812;2023-05-16T15:38:18;4.25;;;1.33;;
78197;SDS011;67472;51.554;7.812;2023-05-16T15:41:06;3.70;;;1.23;;
78197;SDS011;67472;51.554;7.812;2023-05-16T15:43:52;5.72;;;1.73;;
78197;SDS011;67472;51.554;7.812;2023-05-16T15:46:38;6.07;;;1.27;;
78197;SDS011;67472;51.554;7.812;2023-05-16T15:49:25;4.10;;;1.48;;
78197;SDS011;67472;51.554;7.812;2023-05-16T15:52:11;1.73;;;1.05;;
78197;SDS011;67472;51.554;7.812;2023-05-16T15:54:57;3.10;;;1.13;;
78197;SDS011;67472;51.554;7.812;2023-05-16T15:57:45;3.40;;;1.10;;
78197;SDS011;67472;51.554;7.812;2023-05-16T16:00:31;7.13;;;2.03;;
78197;SDS011;67472;51.554;7.812;2023-05-16T16:03:17;6.07;;;1.33;;
78197;SDS011;67472;51.554;7.812;2023-05-16T16:06:04;4.03;;;1.17;;
78197;SDS011;67472;51.554;7.812;2023-05-16T16:08:51;5.95;;;1.58;;
78197;SDS011;67472;51.554;7.812;2023-05-16T16:11:37;7.10;;;1.42;;
78197;SDS011;67472;51.554;7.812;2023-05-16T16:14:25;5.57;;;1.38;;
78197;SDS011;67472;51.554;7.812;2023-05-16T16:17:11;4.03;;;1.30;;
78197;SDS011;67472;51.554;7.812;2023-05-16T16:19:59;6.78;;;1.70;;
78197;SDS011;67472;51.554;7.812;2023-05-16T16:22:46;8.77;;;1.55;;
78197;SDS011;67472;51.554;7.812;2023-05-16T16:25:32;4.15;;;1.63;;
78197;SDS011;67472;51.554;7.812;2023-05-16T16:28:18;9.27;;;1.92;;
78197;SDS011;67472;51.554;7.812;2023-05-16T16:31:06;9.43;;;1.80;;
78197;SDS011;67472;51.554;7.812;2023-05-16T16:33:52;7.55;;;1.50;;
78197;SDS011;67472;51.554;7.812;2023-05-16T16:36:38;5.30;;;1.60;;
78197;SDS011;67472;51.554;7.812;2023-05-16T16:39:25;2.45;;;1.10;;
78197;SDS011;67472;51.554;7.812;2023-05-16T16:42:11;2.22;;;1.13;;
78197;SDS011;67472;51.554;7.812;2023-05-16T16:44:58;7.53;;;1.48;;